createdAt,value
2024-02-08T00:02:02.642Z,99613.81
2024-02-08T00:04:29.286Z,99615.41
2024-02-08T00:06:55.968Z,99559.16
2024-02-08T00:09:22.530Z,99634.69
2024-02-08T00:11:48.998Z,99646.84
2024-02-08T00:14:15.462Z,99640.56
2024-02-08T00:16:41.910Z,99651.53
2024-02-08T00:19:08.415Z,99622.63
2024-02-08T00:21:36.595Z,99584.03
2024-02-08T00:24:03.294Z,99517.97
2024-02-08T00:26:29.883Z,99596.59
2024-02-08T00:28:56.368Z,99553.22
2024-02-08T00:31:22.915Z,99616.97
2024-02-08T00:33:50.768Z,99618.28
2024-02-08T00:36:17.316Z,99626.84
2024-02-08T00:38:46.481Z,99644.09
2024-02-08T00:41:13.013Z,99574.00
2024-02-08T00:43:40.252Z,99580.66
2024-02-08T00:46:07.549Z,99613.81
2024-02-08T00:48:33.925Z,99617.41
2024-02-08T00:51:00.492Z,99611.78
2024-02-08T00:53:26.929Z,99602.19
2024-02-08T00:55:53.453Z,99627.00
2024-02-08T00:58:19.985Z,99494.38
2024-02-08T01:00:48.735Z,99498.91
2024-02-08T01:03:15.491Z,99515.97
2024-02-08T01:05:43.353Z,99611.69
2024-02-08T01:08:11.886Z,99603.44
2024-02-08T01:10:38.490Z,99626.47
2024-02-08T01:13:05.667Z,99537.06
2024-02-08T01:15:32.084Z,99567.22
2024-02-08T01:17:59.796Z,99576.53
2024-02-08T01:20:29.395Z,99492.84
2024-02-08T01:22:56.166Z,99656.72
2024-02-08T01:25:22.741Z,99645.88
2024-02-08T01:27:49.259Z,99570.44
2024-02-08T01:30:15.740Z,99511.97
2024-02-08T01:32:42.406Z,99659.56
2024-02-08T01:35:12.241Z,99431.13
2024-02-08T01:37:39.969Z,99669.41
2024-02-08T01:40:17.663Z,99562.84
2024-02-08T01:42:44.912Z,99688.66
2024-02-08T01:45:31.573Z,99666.56
2024-02-08T01:48:03.626Z,99675.81
2024-02-08T01:50:33.928Z,99676.72
2024-02-08T01:53:00.831Z,99581.97
2024-02-08T01:55:34.015Z,99641.66
2024-02-08T01:58:04.917Z,99594.34
2024-02-08T02:00:36.394Z,99550.06
2024-02-08T02:03:04.697Z,99440.44
2024-02-08T02:05:31.245Z,99659.13
2024-02-08T02:07:58.756Z,99631.88
2024-02-08T02:10:31.016Z,99625.72
2024-02-08T02:13:04.383Z,99617.03
2024-02-08T02:15:32.950Z,99607.06
2024-02-08T02:18:05.074Z,99504.44
2024-02-08T02:20:31.589Z,99635.56
2024-02-08T02:22:59.894Z,99539.91
2024-02-08T02:25:29.778Z,99525.41
2024-02-08T02:27:59.745Z,99595.44
2024-02-08T02:30:29.633Z,99458.47
2024-02-08T02:33:01.031Z,99616.34
2024-02-08T02:35:29.834Z,99520.50
2024-02-08T02:37:59.966Z,99526.78
2024-02-08T02:40:26.520Z,99605.28
2024-02-08T02:42:54.147Z,99641.31
2024-02-08T02:45:25.131Z,99458.66
2024-02-08T02:47:54.691Z,99395.47
2024-02-08T02:50:22.614Z,99489.13
2024-02-08T02:52:50.455Z,99559.00
2024-02-08T02:55:21.308Z,99581.81
2024-02-08T02:57:48.433Z,99570.53
2024-02-08T03:00:34.866Z,99599.38
2024-02-08T03:03:09.994Z,99560.88
2024-02-08T03:05:40.882Z,99538.03
2024-02-08T03:08:08.077Z,99577.16
2024-02-08T03:10:36.045Z,99580.78
2024-02-08T03:13:02.560Z,99594.31
2024-02-08T03:15:28.992Z,99480.56
2024-02-08T03:17:55.516Z,99524.03
2024-02-08T03:20:25.549Z,99496.78
2024-02-08T03:22:52.487Z,99493.34
2024-02-08T03:25:22.750Z,99560.00
2024-02-08T03:27:55.310Z,99606.28
2024-02-08T03:30:32.055Z,99577.38
2024-02-08T03:32:59.957Z,99470.00
2024-02-08T03:35:30.975Z,99593.91
2024-02-08T03:38:01.818Z,99435.28
2024-02-08T03:40:33.611Z,99586.19
2024-02-08T03:43:01.489Z,99449.72
2024-02-08T03:45:31.456Z,99575.06
2024-02-08T03:48:00.210Z,99553.03
2024-02-08T03:50:35.071Z,99574.56
2024-02-08T03:53:05.534Z,99501.25
2024-02-08T03:55:33.019Z,99416.63
2024-02-08T03:58:01.646Z,99543.16
2024-02-08T04:00:31.440Z,99544.78
2024-02-08T04:03:04.958Z,99527.06
2024-02-08T04:05:50.228Z,99532.22
2024-02-08T04:08:28.679Z,99527.91
2024-02-08T04:10:55.787Z,99581.59
2024-02-08T04:13:41.340Z,99543.16
2024-02-08T04:16:26.168Z,99537.50
2024-02-08T04:19:11.419Z,99555.13
2024-02-08T04:21:56.200Z,99547.06
2024-02-08T04:24:41.437Z,99548.28
2024-02-08T04:27:28.742Z,99514.91
2024-02-08T04:30:13.546Z,99535.34
2024-02-08T04:33:08.955Z,99540.75
2024-02-08T04:35:53.790Z,99472.38
2024-02-08T04:38:38.583Z,99553.47
2024-02-08T04:41:23.337Z,99521.59
2024-02-08T04:44:08.414Z,99529.59
2024-02-08T04:46:53.255Z,99523.63
2024-02-08T04:49:38.584Z,99484.97
2024-02-08T04:52:24.196Z,99537.19
2024-02-08T04:54:50.670Z,99451.94
2024-02-08T04:57:17.047Z,99512.50
2024-02-08T04:59:47.570Z,99554.31
2024-02-08T05:02:15.226Z,99419.41
2024-02-08T05:04:43.101Z,99514.22
2024-02-08T05:07:09.812Z,99512.47
2024-02-08T05:09:36.526Z,99317.81
2024-02-08T05:12:06.845Z,99445.16
2024-02-08T05:14:36.241Z,99414.63
2024-02-08T05:17:03.268Z,99483.50
2024-02-08T05:19:30.049Z,99522.97
2024-02-08T05:22:00.998Z,99441.06
2024-02-08T05:24:32.927Z,99433.13
2024-02-08T05:27:03.224Z,99319.94
2024-02-08T05:29:30.221Z,99221.44
2024-02-08T05:31:59.340Z,99317.00
2024-02-08T05:34:27.256Z,99541.50
2024-02-08T05:36:59.393Z,99470.44
2024-02-08T05:39:27.572Z,99337.06
2024-02-08T05:41:59.605Z,99368.91
2024-02-08T05:44:32.440Z,99314.25
2024-02-08T05:47:12.078Z,99358.88
2024-02-08T05:49:52.421Z,99476.38
2024-02-08T05:52:29.804Z,99227.84
2024-02-08T05:54:56.413Z,99205.06
2024-02-08T05:57:25.835Z,99295.53
2024-02-08T06:00:03.679Z,99415.03
2024-02-08T06:02:31.578Z,99314.03
2024-02-08T06:05:05.988Z,99317.22
2024-02-08T06:07:35.631Z,99480.25
2024-02-08T06:10:16.978Z,99457.97
2024-02-08T06:12:53.749Z,99385.47
2024-02-08T06:15:25.564Z,99222.50
2024-02-08T06:17:58.971Z,99488.56
2024-02-08T06:20:35.024Z,99271.09
2024-02-08T06:23:18.078Z,99381.97
2024-02-08T06:26:02.643Z,99452.50
2024-02-08T06:28:30.399Z,99268.44
2024-02-08T06:31:00.191Z,99377.09
2024-02-08T06:33:27.189Z,99488.25
2024-02-08T06:35:57.746Z,99332.19
2024-02-08T06:38:42.691Z,99408.88
2024-02-08T06:41:24.866Z,99333.91
2024-02-08T06:43:58.771Z,99323.63
2024-02-08T06:46:48.828Z,99383.34
2024-02-08T06:49:37.238Z,99333.09
2024-02-08T06:52:22.605Z,99408.78
2024-02-08T06:55:07.523Z,99397.59
2024-02-08T06:57:52.571Z,99397.75
2024-02-08T07:00:37.694Z,99436.13
2024-02-08T07:03:23.447Z,99424.03
2024-02-08T07:06:08.168Z,99398.19
2024-02-08T07:08:53.041Z,99388.13
2024-02-08T07:11:37.792Z,99420.59
2024-02-08T07:14:22.445Z,99445.22
2024-02-08T07:17:07.266Z,99387.16
2024-02-08T07:19:52.445Z,99391.38
2024-02-08T07:22:37.251Z,99408.78
2024-02-08T07:25:22.637Z,99418.81
2024-02-08T07:28:08.949Z,99442.63
2024-02-08T07:30:56.051Z,99427.94
2024-02-08T07:33:41.805Z,99440.91
2024-02-08T07:36:30.432Z,99429.78
2024-02-08T07:39:17.157Z,99433.22
2024-02-08T07:41:54.844Z,99360.84
2024-02-08T07:44:24.242Z,99430.50
2024-02-08T07:46:51.317Z,99333.66
2024-02-08T07:49:18.406Z,99275.53
2024-02-08T07:51:51.626Z,99352.06
2024-02-08T07:54:22.805Z,99174.78
2024-02-08T07:56:49.378Z,99411.34
2024-02-08T07:59:27.685Z,99368.59
2024-02-08T08:01:58.890Z,99201.69
2024-02-08T08:04:52.834Z,99292.19
2024-02-08T08:07:26.617Z,99269.69
2024-02-08T08:10:10.135Z,99229.56
2024-02-08T08:12:37.204Z,99358.41
2024-02-08T08:15:04.134Z,99330.50
2024-02-08T08:17:31.066Z,99335.59
2024-02-08T08:20:05.162Z,99233.78
2024-02-08T08:22:35.540Z,99362.97
2024-02-08T08:25:22.152Z,99187.84
2024-02-08T08:27:48.768Z,99330.91
2024-02-08T08:30:31.489Z,99360.72
2024-02-08T08:33:03.057Z,99343.22
2024-02-08T08:35:46.901Z,99310.78
2024-02-08T08:38:20.425Z,99284.97
2024-02-08T08:40:50.951Z,99200.44
2024-02-08T08:43:23.685Z,99321.00
2024-02-08T08:45:51.775Z,99309.00
2024-02-08T08:48:22.984Z,99337.22
2024-02-08T08:50:56.273Z,99310.38
2024-02-08T08:53:29.369Z,99304.09
2024-02-08T08:55:56.736Z,99283.44
2024-02-08T08:58:28.897Z,99297.16
2024-02-08T09:01:12.733Z,99257.28
2024-02-08T09:03:41.061Z,99265.56
2024-02-08T09:06:13.819Z,99225.09
2024-02-08T09:08:47.220Z,99294.13
2024-02-08T09:11:20.394Z,99267.38
2024-02-08T09:13:52.740Z,99271.72
2024-02-08T09:16:23.295Z,99280.69
2024-02-08T09:19:03.716Z,99258.84
2024-02-08T09:21:36.451Z,99283.34
2024-02-08T09:24:07.925Z,99238.56
2024-02-08T09:26:53.413Z,99254.31
2024-02-08T09:29:28.628Z,99175.25
2024-02-08T09:31:59.600Z,99243.72
2024-02-08T09:34:42.304Z,99183.28
2024-02-08T09:37:10.416Z,99162.25
2024-02-08T09:39:56.639Z,99212.13
2024-02-08T09:42:30.716Z,99209.56
2024-02-08T09:45:15.226Z,99238.69
2024-02-08T09:47:56.192Z,99234.56
2024-02-08T09:50:37.180Z,99207.31
2024-02-08T09:53:20.470Z,99226.41
2024-02-08T09:55:56.836Z,99168.00
2024-02-08T09:58:43.286Z,99192.84
2024-02-08T10:01:23.990Z,99091.19
2024-02-08T10:04:06.094Z,99198.03
2024-02-08T10:06:40.446Z,99051.41
2024-02-08T10:09:30.906Z,99203.44
2024-02-08T10:11:59.358Z,99142.72
2024-02-08T10:14:27.113Z,98988.38
2024-02-08T10:17:01.931Z,99011.63
2024-02-08T10:19:48.757Z,99097.09
2024-02-08T10:22:28.253Z,99008.13
2024-02-08T10:24:54.997Z,99123.41
2024-02-08T10:27:22.603Z,99169.41
2024-02-08T10:29:52.076Z,99166.00
2024-02-08T10:32:19.929Z,99159.66
2024-02-08T10:34:47.530Z,99094.59
2024-02-08T10:37:34.537Z,99100.63
2024-02-08T10:40:01.938Z,99108.97
2024-02-08T10:42:39.336Z,99075.00
2024-02-08T10:45:06.693Z,99134.50
2024-02-08T10:47:42.317Z,99130.28
2024-02-08T10:50:21.123Z,98923.88
2024-02-08T10:52:50.404Z,98978.25
2024-02-08T10:55:19.835Z,99044.19
2024-02-08T10:58:22.281Z,99105.28
2024-02-08T11:00:49.103Z,99069.34
2024-02-08T11:03:29.401Z,99079.91
2024-02-08T11:06:02.824Z,99052.50
2024-02-08T11:08:37.944Z,98983.03
2024-02-08T11:11:10.916Z,99084.66
2024-02-08T11:13:43.579Z,99074.34
2024-02-08T11:16:21.632Z,99064.69
2024-02-08T11:18:53.941Z,99066.28
2024-02-08T11:21:44.874Z,98915.78
2024-02-08T11:24:14.446Z,98964.06
2024-02-08T11:26:55.852Z,99035.19
2024-02-08T11:29:25.336Z,98905.94
2024-02-08T11:31:51.843Z,99068.22
2024-02-08T11:34:25.514Z,98998.69
2024-02-08T11:39:30.872Z,99005.81
2024-02-08T11:42:06.606Z,98934.56
2024-02-08T11:44:40.732Z,99018.00
2024-02-08T11:47:24.770Z,99009.53
2024-02-08T11:50:02.333Z,99018.00
2024-02-08T11:52:29.983Z,99019.03
2024-02-08T11:55:02.918Z,98970.66
2024-02-08T11:57:38.366Z,98985.59
2024-02-08T12:00:16.487Z,98956.38
2024-02-08T12:02:53.379Z,98984.78
2024-02-08T12:05:22.281Z,98868.28
2024-02-08T12:07:49.695Z,98778.59
2024-02-08T12:10:23.211Z,98968.38
2024-02-08T12:12:55.877Z,98962.75
2024-02-08T12:15:22.835Z,98777.28
2024-02-08T12:17:54.071Z,98804.41
2024-02-08T12:20:20.735Z,98900.84
2024-02-08T12:22:54.673Z,98862.97
2024-02-08T12:25:21.510Z,98926.22
2024-02-08T12:27:58.750Z,98899.69
2024-02-08T12:30:34.712Z,98922.75
2024-02-08T12:33:09.772Z,98817.47
2024-02-08T12:35:41.484Z,98745.56
2024-02-08T12:38:10.254Z,98908.00
2024-02-08T12:40:37.039Z,98715.34
2024-02-08T12:43:09.106Z,98851.75
2024-02-08T12:45:36.498Z,98865.59
2024-02-08T12:48:07.818Z,98902.59
2024-02-08T12:50:36.348Z,98731.94
2024-02-08T12:53:06.944Z,98695.16
2024-02-08T12:55:33.455Z,98687.81
2024-02-08T12:58:06.653Z,98708.00
2024-02-08T13:00:36.757Z,98846.78
2024-02-08T13:03:07.689Z,98842.25
2024-02-08T13:05:39.439Z,98858.25
2024-02-08T13:08:09.561Z,98831.53
2024-02-08T13:10:39.676Z,98851.34
2024-02-08T13:13:11.295Z,98854.06
2024-02-08T13:15:38.399Z,98585.88
2024-02-08T13:18:10.921Z,98745.91
2024-02-08T13:20:40.822Z,98745.88
2024-02-08T13:23:10.710Z,98642.94
2024-02-08T13:25:37.677Z,98812.16
2024-02-08T13:28:04.698Z,98702.44
2024-02-08T13:30:31.681Z,98658.66
2024-02-08T13:32:59.706Z,98789.50
2024-02-08T13:35:27.441Z,98718.13
2024-02-08T13:37:55.860Z,98696.75
2024-02-08T13:40:24.565Z,98657.56
2024-02-08T13:42:57.218Z,98576.84
2024-02-08T13:45:27.042Z,98518.44
2024-02-08T13:47:59.226Z,98790.06
2024-02-08T13:50:31.501Z,98682.72
2024-02-08T13:53:00.193Z,98766.88
2024-02-08T13:55:45.477Z,98716.13
2024-02-08T13:58:19.474Z,98689.88
2024-02-08T14:00:46.061Z,98763.94
2024-02-08T14:03:15.898Z,98757.59
2024-02-08T14:05:51.901Z,98713.94
2024-02-08T14:08:19.569Z,98528.47
2024-02-08T14:10:46.483Z,98707.22
2024-02-08T14:13:17.758Z,98482.13
2024-02-08T14:15:49.565Z,98555.59
2024-02-08T14:18:28.699Z,98673.91
2024-02-08T14:21:02.382Z,98425.94
2024-02-08T14:23:38.371Z,98692.75
2024-02-08T14:26:09.360Z,98624.97
2024-02-08T14:28:44.095Z,98588.28
2024-02-08T14:31:11.430Z,98664.09
2024-02-08T14:33:42.464Z,98523.00
2024-02-08T14:36:11.384Z,98555.13
2024-02-08T14:38:46.887Z,98422.63
2024-02-08T14:41:27.793Z,98568.66
2024-02-08T14:43:56.077Z,98561.63
2024-02-08T14:46:27.283Z,98638.25
2024-02-08T14:48:55.157Z,98417.88
2024-02-08T14:51:24.788Z,98617.53
2024-02-08T14:53:55.135Z,98549.91
2024-02-08T14:56:22.229Z,98480.50
2024-02-08T14:59:08.777Z,98610.91
2024-02-08T15:01:43.116Z,98504.78
2024-02-08T15:04:23.187Z,98435.69
2024-02-08T15:07:06.925Z,98413.50
2024-02-08T15:09:37.510Z,98355.47
2024-02-08T15:12:05.751Z,98449.03
2024-02-08T15:14:39.343Z,98443.31
2024-02-08T15:17:11.852Z,98382.19
2024-02-08T15:20:38.759Z,98528.28
2024-02-08T15:23:41.695Z,98536.88
2024-02-08T15:27:07.020Z,98615.06
2024-02-08T15:29:44.280Z,98574.66
2024-02-08T15:32:20.026Z,98515.34
2024-02-08T15:35:00.938Z,98499.88
2024-02-08T15:37:28.097Z,98308.31
2024-02-08T15:39:54.953Z,98532.41
2024-02-08T15:42:33.356Z,98576.56
2024-02-08T15:45:00.611Z,98431.94
2024-02-08T15:47:30.152Z,98567.13
2024-02-08T15:49:57.640Z,98502.56
2024-02-08T15:52:35.775Z,98548.56
2024-02-08T15:55:16.381Z,98422.94
2024-02-08T15:57:52.695Z,98377.47
2024-02-08T16:00:34.810Z,98450.00
2024-02-08T16:03:04.022Z,98457.22
2024-02-08T16:05:36.162Z,98431.06
2024-02-08T16:08:07.357Z,98410.38
2024-02-08T16:10:34.030Z,98507.78
2024-02-08T16:13:07.503Z,98502.56
2024-02-08T16:15:53.956Z,98492.97
2024-02-08T16:18:27.483Z,98459.41
2024-02-08T16:20:59.704Z,98514.59
2024-02-08T16:23:45.429Z,98402.78
2024-02-08T16:26:14.657Z,98231.59
2024-02-08T16:28:51.127Z,98342.69
2024-02-08T16:31:18.077Z,98275.16
2024-02-08T16:33:54.434Z,98416.13
2024-02-08T16:36:35.239Z,98371.75
2024-02-08T16:39:09.364Z,98514.13
2024-02-08T16:41:50.010Z,98403.38
2024-02-08T16:44:23.694Z,98485.97
2024-02-08T16:46:56.785Z,98370.38
2024-02-08T16:49:32.035Z,98410.59
2024-02-08T16:52:05.400Z,98279.53
2024-02-08T16:54:35.274Z,98393.81
2024-02-08T16:57:07.754Z,98388.84
2024-02-08T16:59:49.484Z,98311.66
2024-02-08T17:02:40.368Z,98388.47
2024-02-08T17:05:13.527Z,98301.31
2024-02-08T17:07:46.345Z,98408.41
2024-02-08T17:10:37.447Z,98484.09
2024-02-08T17:13:17.397Z,98397.13
2024-02-08T17:16:00.785Z,98448.09
2024-02-08T17:18:35.179Z,98490.44
2024-02-08T17:21:28.296Z,98401.38
2024-02-08T17:24:02.925Z,98491.63
2024-02-08T17:26:37.701Z,98419.03
2024-02-08T17:29:33.383Z,98406.25
2024-02-08T17:31:59.763Z,98330.19
2024-02-08T17:34:28.384Z,98459.31
2024-02-08T17:36:55.938Z,98445.94
2024-02-08T17:39:26.307Z,98385.59
2024-02-08T17:41:53.455Z,98451.94
2024-02-08T17:44:31.024Z,98442.28
2024-02-08T17:47:01.206Z,98293.75
2024-02-08T17:49:27.981Z,98476.72
2024-02-08T17:51:57.761Z,98389.84
2024-02-08T17:54:32.882Z,98375.41
2024-02-08T17:57:02.996Z,98404.03
2024-02-08T17:59:30.517Z,98270.09
2024-02-08T18:02:15.749Z,98491.97
2024-02-08T18:07:14.136Z,98482.72
2024-02-08T18:09:45.246Z,98475.13
2024-02-08T18:12:34.955Z,98481.50
2024-02-08T18:15:14.073Z,98460.91
2024-02-08T18:17:46.437Z,98364.41
2024-02-08T18:20:16.845Z,98303.91
2024-02-08T18:22:49.752Z,98467.84
2024-02-08T18:25:29.882Z,98380.06
2024-02-08T18:28:00.964Z,98414.03
2024-02-08T18:30:30.023Z,98260.47
2024-02-08T18:33:05.101Z,98273.91
2024-02-08T18:35:36.368Z,98392.25
2024-02-08T18:38:09.565Z,98254.44
2024-02-08T18:40:37.760Z,98400.69
2024-02-08T18:43:05.279Z,98474.69
2024-02-08T18:45:35.760Z,98360.06
2024-02-08T18:48:02.389Z,98401.81
2024-02-08T18:50:31.961Z,98377.69
2024-02-08T18:53:07.591Z,98478.13
2024-02-08T18:55:40.403Z,98310.31
2024-02-08T18:58:10.251Z,98471.03
2024-02-08T19:00:38.361Z,98284.06
2024-02-08T19:03:08.844Z,98293.31
2024-02-08T19:05:43.673Z,98453.81
2024-02-08T19:08:19.627Z,98461.28
2024-02-08T19:10:53.834Z,98388.50
2024-02-08T19:13:28.686Z,98328.25
2024-02-08T19:16:09.252Z,98382.94
2024-02-08T19:18:45.368Z,98437.53
2024-02-08T19:21:16.344Z,98448.75
2024-02-08T19:23:45.753Z,98351.66
2024-02-08T19:26:22.865Z,98384.19
2024-02-08T19:28:50.118Z,98436.22
2024-02-08T19:31:16.622Z,98435.28
2024-02-08T19:33:46.456Z,98448.03
2024-02-08T19:36:23.270Z,98429.03
2024-02-08T19:38:56.649Z,98301.56
2024-02-08T19:41:24.479Z,98457.91
2024-02-08T19:43:51.192Z,98431.53
2024-02-08T19:46:20.750Z,98379.00
2024-02-08T19:48:53.529Z,98434.91
2024-02-08T19:51:26.084Z,98379.00
2024-02-08T19:53:56.091Z,98348.63
2024-02-08T19:56:23.861Z,98444.63
2024-02-08T19:58:53.642Z,98439.00
2024-02-08T20:01:24.265Z,98285.50
2024-02-08T20:03:53.481Z,98270.19
2024-02-08T20:06:22.499Z,98327.22
2024-02-08T20:08:55.302Z,98343.84
2024-02-08T20:11:24.738Z,98350.97
2024-02-08T20:14:00.192Z,98423.78
2024-02-08T20:16:36.708Z,98438.47
2024-02-08T20:19:06.695Z,98250.19
2024-02-08T20:21:33.196Z,98348.50
2024-02-08T20:24:01.400Z,98408.25
2024-02-08T20:26:30.077Z,98411.81
2024-02-08T20:28:56.521Z,98394.19
2024-02-08T20:31:25.601Z,98414.88
2024-02-08T20:33:55.533Z,98397.13
2024-02-08T20:36:22.743Z,98336.34
2024-02-08T20:38:54.504Z,98401.63
2024-02-08T20:41:25.127Z,98393.59
2024-02-08T20:44:08.441Z,98376.19
2024-02-08T20:46:36.338Z,98326.44
2024-02-08T20:49:04.700Z,98302.72
2024-02-08T20:51:34.184Z,98366.84
2024-02-08T20:54:06.183Z,98305.34
2024-02-08T20:56:37.687Z,98401.22
2024-02-08T20:59:11.771Z,98308.28
2024-02-08T21:01:38.274Z,98353.94
2024-02-08T21:04:08.692Z,98384.22
2024-02-08T21:06:35.573Z,98382.53
2024-02-08T21:09:08.109Z,98382.34
2024-02-08T21:11:37.690Z,98405.25
2024-02-08T21:14:05.078Z,98281.38
2024-02-08T21:16:31.762Z,98378.16
2024-02-08T21:18:58.352Z,98336.34
2024-02-08T21:21:25.022Z,98399.63
2024-02-08T21:23:55.317Z,98393.38
2024-02-08T21:26:22.971Z,98353.00
2024-02-08T21:28:52.261Z,98386.44
2024-02-08T21:31:20.048Z,98392.97
2024-02-08T21:33:48.925Z,98301.19
2024-02-08T21:36:16.723Z,98312.53
2024-02-08T21:38:50.197Z,98379.16
2024-02-08T21:41:17.183Z,98335.06
2024-02-08T21:43:44.539Z,98372.94
2024-02-08T21:46:14.324Z,98365.16
2024-02-08T21:48:45.126Z,98368.50
2024-02-08T21:51:13.318Z,98367.56
2024-02-08T21:53:39.932Z,98328.16
2024-02-08T21:56:19.683Z,98349.34
2024-02-08T21:58:47.506Z,98278.56
2024-02-08T22:03:59.409Z,98313.47
2024-02-08T22:06:26.363Z,98336.16
2024-02-08T22:08:53.106Z,98296.75
2024-02-08T22:11:19.698Z,98323.81
2024-02-08T22:13:47.206Z,98318.31
2024-02-08T22:16:17.030Z,98294.38
2024-02-08T22:18:47.468Z,98305.88
2024-02-08T22:21:18.175Z,98332.97
2024-02-08T22:23:45.537Z,98303.25
2024-02-08T22:26:13.925Z,98299.63
2024-02-08T22:28:44.003Z,98217.94
2024-02-08T22:31:12.425Z,98318.56
2024-02-08T22:33:39.384Z,98212.28
2024-02-08T22:36:07.919Z,98285.41
2024-02-08T22:38:34.565Z,98292.13
2024-02-08T22:41:01.668Z,98269.63
2024-02-08T22:43:28.539Z,98252.69
2024-02-08T22:45:56.102Z,98280.00
2024-02-08T22:48:23.306Z,98256.06
2024-02-08T22:50:52.455Z,98276.69
2024-02-08T22:53:21.085Z,98244.66
2024-02-08T22:55:52.093Z,98271.44
2024-02-08T22:58:20.066Z,98214.28
2024-02-08T23:00:50.867Z,98150.25
2024-02-08T23:03:18.385Z,98215.03
2024-02-08T23:05:46.959Z,98191.47
2024-02-08T23:08:17.060Z,98178.97
2024-02-08T23:10:43.845Z,98233.09
2024-02-08T23:13:12.070Z,98223.94
2024-02-08T23:15:45.759Z,98244.47
2024-02-08T23:18:15.853Z,98184.13
2024-02-08T23:20:44.724Z,98215.34
2024-02-08T23:23:12.212Z,98144.38
2024-02-08T23:25:40.911Z,98219.78
2024-02-08T23:28:08.156Z,98140.06
2024-02-08T23:30:34.861Z,98240.34
2024-02-08T23:33:04.729Z,98209.00
2024-02-08T23:35:31.824Z,98112.88
2024-02-08T23:38:01.482Z,98233.84
2024-02-08T23:40:29.497Z,98233.53
2024-02-08T23:42:57.818Z,98234.78
2024-02-08T23:45:29.265Z,98204.94
2024-02-08T23:47:56.236Z,98195.97
2024-02-08T23:50:25.236Z,98232.19
2024-02-08T23:52:53.374Z,98228.81
2024-02-08T23:55:24.451Z,98212.38
2024-02-08T23:57:51.012Z,98159.88
